| time (UTC) | temp F | wind direction | speed MPH | gust MPH | rain 1hr in | rain 24hr in | rain mn in | humidity % | barometer mb |
| 20260507164017 | 56 | 179 | 7.0 | 8.0 | 0.00 | 0.00 | 0.00 | 59 | 1016.0 |
| 20260507162517 | 56 | 142 | 3.0 | 6.0 | 0.00 | 0.00 | 0.00 | 59 | 1015.9 |
| 20260507161017 | 56 | 139 | 3.0 | 4.0 | 0.00 | 0.00 | 0.00 | 62 | 1016.1 |
| 20260507155517 | 55 | 140 | 2.0 | 3.0 | 0.00 | 0.00 | 0.00 | 64 | 1016.1 |
| 20260507154017 | 55 | 164 | 2.0 | 3.0 | 0.00 | 0.00 | 0.00 | 65 | 1016.3 |
| 20260507152517 | 54 | 183 | 4.0 | 6.0 | 0.00 | 0.00 | 0.00 | 65 | 1016.5 |
| 20260507151017 | 54 | 172 | 4.0 | 7.0 | 0.00 | 0.00 | 0.00 | 66 | 1016.4 |
| 20260507145517 | 54 | 172 | 5.0 | 7.0 | 0.00 | 0.00 | 0.00 | 65 | 1016.7 |
| 20260507144017 | 54 | 176 | 4.0 | 4.0 | 0.00 | 0.00 | 0.00 | 65 | 1016.6 |
| 20260507142517 | 54 | 162 | 5.0 | 7.0 | 0.00 | 0.00 | 0.00 | 67 | 1016.7 |
| 20260507141017 | 54 | 174 | 3.0 | 4.0 | 0.00 | 0.00 | 0.00 | 66 | 1017.0 |
| 20260507135517 | 54 | 178 | 4.0 | 4.0 | 0.00 | 0.00 | 0.00 | 65 | 1016.9 |
| 20260507134017 | 54 | 192 | 6.0 | 8.0 | 0.00 | 0.00 | 0.00 | 64 | 1016.8 |
| 20260507132517 | 55 | 165 | 5.0 | 6.0 | 0.00 | 0.00 | 0.00 | 63 | 1016.9 |
| 20260507131017 | 55 | 141 | 5.0 | 7.0 | 0.00 | 0.00 | 0.00 | 64 | 1016.8 |
| 20260507125517 | 55 | 132 | 6.0 | 7.0 | 0.00 | 0.00 | 0.00 | 65 | 1016.8 |
| 20260507124017 | 55 | 184 | 3.0 | 6.0 | 0.00 | 0.00 | 0.00 | 67 | 1016.8 |
| 20260507122517 | 54 | 166 | 5.0 | 8.0 | 0.00 | 0.00 | 0.00 | 68 | 1017.2 |
| 20260507121017 | 54 | 174 | 4.0 | 7.0 | 0.00 | 0.00 | 0.00 | 70 | 1017.3 |
| 20260507115517 | 54 | 182 | 1.0 | 1.0 | 0.00 | 0.00 | 0.00 | 71 | 1017.2 |
| 20260507114017 | 52 | 124 | 3.0 | 6.0 | 0.00 | 0.00 | 0.00 | 74 | 1017.3 |
| 20260507112517 | 50 | 124 | 4.0 | 8.0 | 0.00 | 0.00 | 0.00 | 77 | 1017.6 |
| 20260507111017 | 50 | 106 | 5.0 | 8.0 | 0.00 | 0.00 | 0.00 | 78 | 1017.4 |
| 20260507105517 | 49 | 172 | 5.0 | 7.0 | 0.00 | 0.00 | 0.00 | 79 | 1017.7 |
| 20260507104017 | 49 | 164 | 4.0 | 6.0 | 0.00 | 0.00 | 0.00 | 79 | 1017.6 |
| 20260507102517 | 48 | 172 | 4.0 | 7.0 | 0.00 | 0.00 | 0.00 | 80 | 1017.6 |
| 20260507101017 | 48 | 171 | 4.0 | 4.0 | 0.00 | 0.00 | 0.00 | 80 | 1017.8 |
| 20260507095517 | 48 | 184 | 4.0 | 6.0 | 0.00 | 0.00 | 0.00 | 79 | 1017.7 |
| 20260507094017 | 47 | 185 | 6.0 | 8.0 | 0.00 | 0.00 | 0.00 | 80 | 1017.7 |
| 20260507092517 | 47 | 187 | 6.0 | 8.0 | 0.00 | 0.00 | 0.00 | 80 | 1017.8 |
| 20260507091017 | 47 | 159 | 6.0 | 7.0 | 0.00 | 0.00 | 0.00 | 82 | 1017.6 |
| 20260507085517 | 46 | 173 | 5.0 | 7.0 | 0.00 | 0.00 | 0.00 | 82 | 1017.7 |
| 20260507084017 | 46 | 169 | 5.0 | 7.0 | 0.00 | 0.00 | 0.00 | 83 | 1017.6 |
| 20260507082517 | 46 | 169 | 5.0 | 6.0 | 0.00 | 0.00 | 0.00 | 83 | 1017.7 |
| 20260507081017 | 46 | 158 | 2.0 | 4.0 | 0.00 | 0.00 | 0.00 | 83 | 1017.6 |
| 20260507075517 | 46 | 171 | 5.0 | 8.0 | 0.00 | 0.00 | 0.00 | 82 | 1017.6 |
| 20260507074017 | 46 | 180 | 3.0 | 4.0 | 0.00 | 0.00 | 0.00 | 81 | 1017.5 |
| 20260507072517 | 46 | 179 | 3.0 | 4.0 | 0.00 | 0.00 | 0.00 | 82 | 1017.6 |
| 20260507071017 | 46 | 171 | 3.0 | 3.0 | 0.00 | 0.00 | 0.00 | 83 | 1017.7 |
| 20260507065517 | 46 | 201 | 3.0 | 4.0 | 0.00 | 0.00 | 0.00 | 83 | 1017.3 |
| 20260507064017 | 45 | 181 | 3.0 | 4.0 | 0.00 | 0.00 | 0.00 | 84 | 1017.3 |
| 20260507062517 | 45 | 165 | 2.0 | 2.0 | 0.00 | 0.00 | 0.00 | 84 | 1017.3 |
| 20260507061017 | 43 | 163 | 3.0 | 3.0 | 0.00 | 0.00 | 0.00 | 86 | 1017.4 |
| 20260507055517 | 42 | 162 | 0.0 | 1.0 | 0.00 | 0.00 | 0.00 | 87 | 1017.3 |
| 20260507054017 | 42 | 0 | 0.0 | 0.0 | 0.00 | 0.00 | 0.00 | 87 | 1017.3 |
| 20260507052517 | 42 | 176 | 2.0 | 3.0 | 0.00 | 0.00 | 0.00 | 87 | 1017.3 |
| 20260507051017 | 42 | 183 | 2.0 | 2.0 | 0.00 | 0.00 | 0.00 | 86 | 1017.3 |
| 20260507045517 | 42 | 182 | 2.0 | 4.0 | 0.00 | 0.00 | 0.00 | 86 | 1017.2 |
| 20260507044017 | 42 | 178 | 2.0 | 2.0 | 0.00 | 0.00 | 0.00 | 87 | 1017.3 |
| 20260507042517 | 42 | 174 | 1.0 | 2.0 | 0.00 | 0.00 | 0.00 | 87 | 1017.1 |
| 20260507041017 | 42 | 159 | 2.0 | 3.0 | 0.00 | 0.00 | 0.00 | 87 | 1016.9 |
| 20260507035517 | 42 | 176 | 1.0 | 2.0 | 0.00 | 0.00 | 0.00 | 86 | 1017.1 |
| 20260507034017 | 41 | 177 | 2.0 | 3.0 | 0.00 | 0.00 | 0.00 | 86 | 1017.1 |
| 20260507032517 | 41 | 172 | 1.0 | 1.0 | 0.00 | 0.00 | 0.00 | 85 | 1017.2 |
| 20260507031017 | 41 | 197 | 3.0 | 3.0 | 0.00 | 0.00 | 0.00 | 85 | 1017.3 |
| 20260507025517 | 40 | 175 | 2.0 | 3.0 | 0.00 | 0.00 | 0.00 | 84 | 1017.2 |
| 20260507024017 | 40 | 0 | 0.0 | 0.0 | 0.00 | 0.00 | 0.00 | 86 | 1017.3 |
| 20260507022517 | 40 | 0 | 0.0 | 0.0 | 0.00 | 0.00 | 0.00 | 86 | 1017.5 |
| 20260507021017 | 40 | 201 | 3.0 | 4.0 | 0.00 | 0.00 | 0.00 | 86 | 1017.1 |
| 20260507015517 | 39 | 177 | 3.0 | 3.0 | 0.00 | 0.00 | 0.00 | 87 | 1017.4 |
| 20260507014017 | 39 | 174 | 2.0 | 3.0 | 0.00 | 0.00 | 0.00 | 87 | 1017.1 |
| 20260507012517 | 39 | 174 | 2.0 | 3.0 | 0.00 | 0.00 | 0.00 | 87 | 1017.3 |
| 20260507011017 | 39 | 186 | 1.0 | 2.0 | 0.00 | 0.00 | 0.00 | 88 | 1017.4 |
| 20260507005517 | 39 | 173 | 0.0 | 1.0 | 0.00 | 0.00 | 0.00 | 88 | 1017.7 |
| 20260507004017 | 39 | 183 | 1.0 | 2.0 | 0.00 | 0.00 | 0.00 | 88 | 1017.4 |
| 20260507002517 | 39 | 197 | 1.0 | 2.0 | 0.00 | 0.00 | 0.00 | 88 | 1017.4 |
| 20260507001017 | 39 | 170 | 1.0 | 2.0 | 0.00 | 0.00 | 0.00 | 87 | 1017.7 |
| 20260506235517 | 39 | 199 | 1.0 | 2.0 | 0.00 | 0.00 | 0.00 | 87 | 1017.8 |
| 20260506234017 | 40 | 0 | 0.0 | 0.0 | 0.00 | 0.00 | 0.00 | 86 | 1017.9 |
| 20260506232517 | 40 | 0 | 0.0 | 0.0 | 0.00 | 0.00 | 0.00 | 86 | 1017.7 |
| 20260506231017 | 40 | 0 | 0.0 | 0.0 | 0.00 | 0.00 | 0.00 | 85 | 1017.7 |
| 20260506225517 | 41 | 159 | 1.0 | 1.0 | 0.00 | 0.00 | 0.00 | 85 | 1018.0 |
| 20260506224017 | 41 | 154 | 0.0 | 1.0 | 0.00 | 0.00 | 0.00 | 85 | 1017.8 |
| 20260506222517 | 41 | 183 | 2.0 | 3.0 | 0.00 | 0.00 | 0.00 | 85 | 1017.6 |
| 20260506221017 | 42 | 166 | 2.0 | 3.0 | 0.00 | 0.00 | 0.00 | 84 | 1017.8 |
| 20260506215517 | 43 | 171 | 3.0 | 4.0 | 0.00 | 0.00 | 0.00 | 82 | 1017.5 |
| 20260506214017 | 43 | 147 | 2.0 | 3.0 | 0.00 | 0.00 | 0.00 | 82 | 1017.8 |
| 20260506212517 | 43 | 132 | 3.0 | 4.0 | 0.00 | 0.00 | 0.00 | 82 | 1017.6 |
| 20260506211017 | 44 | 138 | 1.0 | 2.0 | 0.00 | 0.00 | 0.00 | 81 | 1017.7 |
| 20260506205517 | 44 | 148 | 0.0 | 1.0 | 0.00 | 0.00 | 0.00 | 81 | 1017.5 |
| 20260506204017 | 44 | 148 | 0.0 | 1.0 | 0.00 | 0.00 | 0.00 | 80 | 1017.6 |
| 20260506202517 | 44 | 0 | 0.0 | 0.0 | 0.00 | 0.00 | 0.00 | 79 | 1017.3 |
| 20260506201017 | 45 | 0 | 0.0 | 0.0 | 0.00 | 0.00 | 0.00 | 78 | 1017.2 |
| 20260506195517 | 45 | 0 | 0.0 | 0.0 | 0.00 | 0.00 | 0.00 | 78 | 1017.0 |
| 20260506194017 | 45 | 0 | 0.0 | 0.0 | 0.00 | 0.00 | 0.00 | 78 | 1016.9 |
| 20260506192517 | 46 | 108 | 1.0 | 3.0 | 0.00 | 0.00 | 0.00 | 77 | 1017.0 |
| 20260506191017 | 47 | 129 | 2.0 | 3.0 | 0.00 | 0.00 | 0.00 | 75 | 1016.8 |
| 20260506185517 | 47 | 133 | 5.0 | 8.0 | 0.00 | 0.00 | 0.00 | 74 | 1016.8 |
| 20260506184017 | 47 | 126 | 6.0 | 8.0 | 0.00 | 0.00 | 0.00 | 74 | 1016.7 |
| 20260506182517 | 47 | 133 | 6.0 | 11.0 | 0.00 | 0.00 | 0.00 | 73 | 1016.6 |
| 20260506181018 | 48 | 120 | 1.0 | 3.0 | 0.00 | 0.00 | 0.00 | 73 | 1016.7 |
| 20260506175517 | 48 | 158 | 1.0 | 3.0 | 0.00 | 0.00 | 0.00 | 74 | 1016.7 |
| 20260506174017 | 47 | 0 | 0.0 | 0.0 | 0.00 | 0.00 | 0.00 | 75 | 1016.7 |
| 20260506172517 | 47 | 144 | 1.0 | 3.0 | 0.00 | 0.00 | 0.00 | 74 | 1016.6 |
| 20260506171017 | 48 | 87 | 2.0 | 3.0 | 0.00 | 0.00 | 0.00 | 73 | 1016.7 |
| 20260506165517 | 48 | 98 | 1.0 | 2.0 | 0.00 | 0.00 | 0.00 | 72 | 1016.7 |